Time;durP1;ratioP1;P1;durP2;ratioP2;P2;SDS_P1;SDS_P2;PMS_P1;PMS_P2;Temp;Humidity;BMP_temperature;BMP_pressure;BME280_temperature;BME280_humidity;BME280_pressure;Samples;Min_cycle;Max_cycle;Signal;HPM_P1;HPM_P2
2023/08/06 00:00:18;;;;;;;5.28;2.92;;;;;;;15.32;89.95;100745.22;4871399;29;19919;-78
2023/08/06 00:02:44;;;;;;;;;;;;;;;15.32;89.78;100745.22;4878619;29;20674;-80
2023/08/06 00:05:11;;;;;;;3.25;2.25;;;;;;;15.29;88.92;100741.19;4876009;29;20370;-79
2023/08/06 00:07:37;;;;;;;3.40;2.17;;;;;;;15.29;88.93;100741.19;4879397;29;20032;-81
2023/08/06 00:10:02;;;;;;;;;;;;;;;15.30;89.00;100739.31;4882228;29;20043;-82
2023/08/06 00:12:29;;;;;;;4.72;2.60;;;;;;;15.29;89.45;100737.72;4863374;29;20006;-81
2023/08/06 00:14:54;;;;;;;;;;;;;;;15.30;89.75;100736.59;4870209;29;20046;-79
2023/08/06 00:17:21;;;;;;;5.82;3.53;;;;;;;15.26;89.19;100732.94;4893452;29;20731;-81
2023/08/06 00:19:46;;;;;;;5.90;2.03;;;;;;;15.25;89.22;100734.03;4877919;29;20041;-81
2023/08/06 00:22:12;;;;;;;;;;;;;;;15.25;90.86;100732.13;4881904;29;20088;-83
2023/08/06 00:24:38;;;;;;;3.05;2.28;;;;;;;15.17;90.43;100726.63;4883270;29;20017;-82
2023/08/06 00:27:04;;;;;;;5.20;2.53;;;;;;;15.17;90.40;100719.34;4874172;29;20120;-82
2023/08/06 00:29:29;;;;;;;5.38;3.85;;;;;;;15.19;89.80;100724.44;4870620;29;20054;-81
2023/08/06 00:31:56;;;;;;;5.50;3.05;;;;;;;15.19;90.43;100719.03;4880328;29;20024;-79
2023/08/06 00:34:24;;;;;;;5.20;3.47;;;;;;;15.17;90.55;100713.13;4889907;29;20487;-82
2023/08/06 00:36:50;;;;;;;;;;;;;;;15.17;91.66;100711.25;4895917;29;20032;-82
2023/08/06 00:39:15;;;;;;;8.38;3.95;;;;;;;15.13;91.40;100706.75;4880126;29;19954;-81
2023/08/06 00:41:41;;;;;;;5.05;3.22;;;;;;;15.15;91.48;100712.63;4872353;29;20040;-82
2023/08/06 00:44:07;;;;;;;7.57;3.60;;;;;;;15.13;91.41;100709.44;4872184;29;20060;-79
2023/08/06 00:46:33;;;;;;;4.90;3.95;;;;;;;15.14;91.50;100705.66;4878429;29;21279;-81
2023/08/06 00:49:01;;;;;;;4.45;3.15;;;;;;;15.14;91.75;100701.06;4889368;29;20123;-83
2023/08/06 00:51:27;;;;;;;6.95;4.95;;;;;;;15.17;92.19;100705.03;4864648;29;20136;-80
2023/08/06 00:53:53;;;;;;;5.78;4.13;;;;;;;15.17;91.89;100695.06;4892001;29;20418;-80
2023/08/06 00:56:18;;;;;;;5.68;3.97;;;;;;;15.19;92.11;100697.47;4860426;29;20048;-83
2023/08/06 00:58:45;;;;;;;;;;;;;;;15.20;92.38;100682.88;4875022;29;20047;-80
2023/08/06 01:01:12;;;;;;;4.90;3.88;;;;;;;15.17;91.92;100683.44;4872518;29;19915;-80
2023/08/06 01:03:37;;;;;;;5.50;3.30;;;;;;;15.14;91.71;100676.78;4891045;29;20033;-80
2023/08/06 01:06:04;;;;;;;;;;;;;;;15.18;92.45;100685.06;4863079;29;20101;-83
2023/08/06 01:08:44;;;;;;;5.22;3.55;;;;;;;15.16;92.28;100688.06;4891514;29;20018;-80
2023/08/06 01:11:47;;;;;;;5.07;3.08;;;;;;;15.17;91.55;100683.44;4877861;29;20054;-80
2023/08/06 01:14:23;;;;;;;5.28;3.38;;;;;;;15.16;91.52;100671.88;4883698;29;20055;-79
2023/08/06 01:16:50;;;;;;;4.53;3.20;;;;;;;15.14;91.69;100673.28;4871807;29;20192;-80
2023/08/06 01:19:17;;;;;;;4.80;2.90;;;;;;;15.15;91.56;100666.78;4876604;29;20559;-80
2023/08/06 01:21:43;;;;;;;5.55;3.35;;;;;;;15.12;91.05;100670.09;4896060;29;20155;-80
2023/08/06 01:24:09;;;;;;;;;;;;;;;15.12;91.61;100654.72;4898517;29;20426;-82
2023/08/06 01:26:57;;;;;;;6.50;3.55;;;;;;;15.07;90.98;100654.00;4854679;29;19927;-80
2023/08/06 01:30:16;;;;;;;4.03;2.92;;;;;;;15.08;90.58;100651.00;4891074;29;20080;-81
2023/08/06 01:32:44;;;;;;;3.45;2.80;;;;;;;15.08;90.34;100661.00;4877559;29;20051;-79
2023/08/06 01:35:12;;;;;;;5.20;3.15;;;;;;;15.07;90.54;100664.81;4860237;29;20405;-76
2023/08/06 01:37:38;;;;;;;6.65;3.53;;;;;;;15.07;91.49;100651.31;4884550;29;20073;-78
2023/08/06 01:40:13;;;;;;;4.10;3.03;;;;;;;15.03;91.39;100643.00;4871800;29;20040;-78
2023/08/06 01:42:40;;;;;;;3.25;2.53;;;;;;;15.05;90.89;100643.53;4892589;29;20049;-81
2023/08/06 01:45:08;;;;;;;6.85;2.90;;;;;;;15.06;90.57;100636.25;4874524;29;20041;-83
2023/08/06 01:47:33;;;;;;;6.13;3.80;;;;;;;15.05;90.30;100635.44;4876835;29;20033;-82
2023/08/06 01:49:59;;;;;;;6.45;2.97;;;;;;;15.03;91.20;100633.03;4889310;29;20044;-80
2023/08/06 01:52:25;;;;;;;4.85;3.63;;;;;;;15.01;91.41;100627.13;4858172;29;20043;-82
2023/08/06 01:54:50;;;;;;;3.30;2.38;;;;;;;15.00;90.77;100628.25;4868657;29;20048;-80
2023/08/06 01:57:16;;;;;;;3.90;2.80;;;;;;;15.00;91.64;100625.56;4877045;29;20455;-82
2023/08/06 01:59:42;;;;;;;4.40;2.97;;;;;;;15.00;92.02;100628.25;4880571;29;20036;-81
2023/08/06 02:02:07;;;;;;;;;;;;;;;15.01;92.34;100621.75;4887618;29;20033;-81
2023/08/06 02:04:33;;;;;;;5.10;3.13;;;;;;;14.96;91.92;100624.53;4884542;29;19923;-79
2023/08/06 02:07:02;;;;;;;4.13;2.22;;;;;;;14.96;91.60;100619.16;4890525;29;20037;-81
2023/08/06 02:09:28;;;;;;;;;;;;;;;14.97;91.57;100622.66;4861211;29;20176;-81
2023/08/06 02:11:54;;;;;;;4.53;2.90;;;;;;;14.96;91.91;100623.75;4879911;29;20006;-80
2023/08/06 02:14:20;;;;;;;;;;;;;;;14.95;92.46;100617.56;4920481;29;20489;-82
2023/08/06 02:16:45;;;;;;;3.67;2.17;;;;;;;14.92;91.87;100612.78;4878384;29;19943;-82
2023/08/06 02:19:11;;;;;;;;;;;;;;;14.92;92.46;100607.38;4878809;29;20040;-81
2023/08/06 02:21:37;;;;;;;5.68;3.08;;;;;;;14.86;92.07;100613.97;4890389;29;19914;-81
2023/08/06 02:24:03;;;;;;;;;;;;;;;14.85;92.68;100609.69;4880489;29;20075;-82
2023/08/06 02:26:29;;;;;;;3.75;2.75;;;;;;;14.82;92.07;100604.09;4861911;29;19923;-81
2023/08/06 02:28:55;;;;;;;;;;;;;;;14.85;92.67;100611.59;4890760;29;20033;-80
2023/08/06 02:31:20;;;;;;;5.15;3.17;;;;;;;14.81;92.74;100605.19;4872155;29;19927;-82
2023/08/06 02:33:46;;;;;;;4.90;3.03;;;;;;;14.81;92.84;100600.59;4895706;29;20029;-82
2023/08/06 02:36:12;;;;;;;;;;;;;;;14.80;93.16;100593.63;4891094;29;20149;-80
2023/08/06 02:38:38;;;;;;;5.72;4.10;;;;;;;14.76;92.41;100587.22;4863558;29;20027;-79
2023/08/06 02:41:04;;;;;;;;;;;;;;;14.78;92.99;100590.44;4880981;29;20039;-78
2023/08/06 02:43:30;;;;;;;8.02;4.07;;;;;;;14.74;92.32;100584.81;4874796;29;19928;-80
2023/08/06 02:45:59;;;;;;;;;;;;;;;14.77;93.27;100582.63;4877162;29;20048;-80
2023/08/06 02:48:25;;;;;;;4.35;3.33;;;;;;;14.73;93.33;100580.53;4897027;29;19919;-81
2023/08/06 02:50:52;;;;;;;;;;;;;;;14.75;93.72;100580.22;4874864;29;20036;-81
2023/08/06 02:53:18;;;;;;;4.47;3.47;;;;;;;14.71;93.32;100579.25;4859660;29;19942;-82
2023/08/06 02:55:50;;;;;;;5.93;3.72;;;;;;;14.72;93.41;100570.06;4896839;29;20040;-79
2023/08/06 02:58:22;;;;;;;4.47;3.88;;;;;;;14.74;93.50;100567.84;4880466;29;20653;-80
2023/08/06 03:01:02;;;;;;;6.05;4.13;;;;;;;14.74;93.71;100559.78;4864536;29;20054;-81
2023/08/06 03:03:30;;;;;;;5.10;4.13;;;;;;;14.74;93.71;100563.25;5008870;23;20063;-78
2023/08/06 03:06:00;;;;;;;8.05;4.32;;;;;;;14.72;93.59;100564.69;4924601;29;20024;-78
2023/08/06 03:08:41;;;;;;;8.25;4.88;;;;;;;14.73;94.05;100561.66;4907357;29;20497;-78
2023/08/06 03:11:07;;;;;;;4.60;3.90;;;;;;;14.75;94.06;100570.25;4921311;29;20043;-78
2023/08/06 03:13:33;;;;;;;5.55;4.30;;;;;;;14.75;93.62;100570.25;4919214;29;20524;-77
2023/08/06 03:15:59;;;;;;;5.15;3.60;;;;;;;14.76;93.33;100568.34;4902117;29;21118;-77
2023/08/06 03:18:27;;;;;;;7.68;4.22;;;;;;;14.78;93.73;100574.25;4934008;29;20031;-78
2023/08/06 03:20:54;;;;;;;5.65;4.80;;;;;;;14.77;93.52;100572.66;4917308;29;20551;-78
2023/08/06 03:23:20;;;;;;;5.45;4.40;;;;;;;14.77;93.09;100567.28;4917976;29;20039;-77
2023/08/06 03:25:46;;;;;;;5.53;4.45;;;;;;;14.79;92.91;100569.66;4934550;29;20406;-80
2023/08/06 03:28:13;;;;;;;6.68;4.60;;;;;;;14.77;93.24;100556.50;4937097;29;20544;-77
2023/08/06 03:30:39;;;;;;;8.07;4.65;;;;;;;14.77;93.80;100555.66;4942233;29;20031;-79
2023/08/06 03:33:07;;;;;;;5.40;3.70;;;;;;;14.73;93.70;100553.59;4949628;28;20035;-79
2023/08/06 03:35:33;;;;;;;5.63;3.70;;;;;;;14.76;93.55;100549.47;4917194;29;20269;-77
2023/08/06 03:37:59;;;;;;;5.65;4.10;;;;;;;14.74;93.42;100541.69;4914956;29;20541;-79
2023/08/06 03:40:27;;;;;;;4.80;4.03;;;;;;;14.77;93.40;100543.00;4904542;29;20497;-76
2023/08/06 03:42:52;;;;;;;5.32;4.32;;;;;;;14.74;93.67;100547.09;4905150;29;20065;-79
2023/08/06 03:45:18;;;;;;;6.88;4.30;;;;;;;14.73;93.36;100539.31;4939794;29;20043;-76
2023/08/06 03:47:44;;;;;;;4.70;3.72;;;;;;;14.73;93.29;100539.31;4908457;29;20055;-81
2023/08/06 03:50:10;;;;;;;5.80;4.38;;;;;;;14.70;93.68;100538.03;4937571;29;20484;-78
2023/08/06 03:52:36;;;;;;;;;;;;;;;14.71;93.56;100546.91;4933778;29;20501;-76
2023/08/06 03:55:02;;;;;;;4.22;3.45;;;;;;;14.66;93.24;100530.84;4934313;29;19919;-80
2023/08/06 03:57:28;;;;;;;7.20;3.65;;;;;;;14.66;93.27;100530.84;4917613;29;20043;-77
2023/08/06 03:59:53;;;;;;;;;;;;;;;14.66;93.49;100533.53;4924786;29;20036;-80
2023/08/06 04:02:19;;;;;;;6.43;3.78;;;;;;;14.59;93.75;100528.56;4954586;28;20471;-79
2023/08/06 04:04:45;;;;;;;5.20;4.07;;;;;;;14.60;93.18;100530.13;4926350;29;20032;-79
2023/08/06 04:07:10;;;;;;;;;;;;;;;14.60;93.35;100530.13;4923476;29;20497;-77
2023/08/06 04:09:52;;;;;;;5.75;3.75;;;;;;;14.53;92.97;100520.88;4937872;29;19915;-77
2023/08/06 04:12:18;;;;;;;5.53;3.10;;;;;;;14.53;92.75;100524.38;4936285;29;20036;-78
2023/08/06 04:14:44;;;;;;;5.03;4.20;;;;;;;14.51;92.83;100523.06;4917555;29;20039;-77
2023/08/06 04:17:09;;;;;;;;;;;;;;;14.52;93.10;100535.44;4925452;29;20036;-78
2023/08/06 04:19:35;;;;;;;6.60;3.83;;;;;;;14.48;93.46;100529.84;4917544;29;19918;-78
2023/08/06 04:22:01;;;;;;;5.03;3.10;;;;;;;14.46;92.89;100540.94;4943822;29;20042;-77
2023/08/06 04:24:27;;;;;;;5.75;4.18;;;;;;;14.43;92.87;100525.34;4908859;29;20040;-78
2023/08/06 04:26:52;;;;;;;;;;;;;;;14.45;93.12;100539.31;4911295;29;20260;-78
2023/08/06 04:29:18;;;;;;;5.70;3.42;;;;;;;14.42;93.13;100539.88;4925190;29;19978;-80
2023/08/06 04:31:44;;;;;;;7.82;4.15;;;;;;;14.38;92.97;100536.22;4944496;29;20035;-77
2023/08/06 04:34:09;;;;;;;;;;;;;;;14.40;93.35;100534.00;4936066;29;20086;-77
2023/08/06 04:36:38;;;;;;;5.22;3.78;;;;;;;14.39;93.44;100537.00;4918688;29;19922;-78
2023/08/06 04:39:04;;;;;;;6.47;3.95;;;;;;;14.39;93.19;100540.50;4934013;29;20039;-78
2023/08/06 04:41:30;;;;;;;;;;;;;;;14.38;93.77;100538.91;4919249;29;20043;-77
2023/08/06 04:43:59;;;;;;;5.88;3.40;;;;;;;14.35;93.37;100544.88;4926347;29;19925;-78
2023/08/06 04:46:25;;;;;;;5.88;3.85;;;;;;;14.31;93.09;100530.44;4917635;29;20047;-78
2023/08/06 04:48:50;;;;;;;;;;;;;;;14.33;93.51;100535.50;4924755;29;20039;-81
2023/08/06 04:51:16;;;;;;;6.80;3.70;;;;;;;14.28;93.46;100522.94;4921885;29;19922;-77
2023/08/06 04:53:41;;;;;;;5.47;4.00;;;;;;;14.27;93.54;100528.63;4924978;29;20035;-78
2023/08/06 04:56:07;;;;;;;7.22;3.88;;;;;;;14.25;93.48;100539.72;4934762;29;20453;-79
2023/08/06 04:58:33;;;;;;;6.32;4.32;;;;;;;14.29;93.68;100534.50;4926997;29;20036;-79
2023/08/06 05:00:58;;;;;;;6.22;3.70;;;;;;;14.30;94.12;100528.84;4944660;29;20072;-79
2023/08/06 05:03:24;;;;;;;;;;;;;;;14.31;94.05;100538.50;4936552;29;20047;-81
2023/08/06 05:05:50;;;;;;;6.85;3.72;;;;;;;14.24;94.11;100527.34;4934805;29;19922;-81
2023/08/06 05:08:19;;;;;;;5.22;4.38;;;;;;;14.27;94.25;100532.13;4957425;28;20035;-81
2023/08/06 05:10:45;;;;;;;6.35;4.40;;;;;;;14.28;94.19;100528.31;4961556;29;20047;-81
2023/08/06 05:13:11;;;;;;;6.50;4.97;;;;;;;14.27;94.54;100525.94;5139376;23;20346;-79
2023/08/06 05:15:37;;;;;;;;;;;;;;;14.29;94.60;100539.88;4976080;29;20046;-81
2023/08/06 05:18:03;;;;;;;8.30;4.07;;;;;;;14.28;94.68;100533.72;4961720;29;19910;-81
2023/08/06 05:20:29;;;;;;;7.20;4.00;;;;;;;14.30;94.60;100528.84;4975904;28;20079;-81
2023/08/06 05:22:55;;;;;;;;;;;;;;;14.32;94.88;100533.94;4941345;29;20032;-81
2023/08/06 05:25:21;;;;;;;5.30;3.85;;;;;;;14.27;94.23;100532.13;4975249;28;19906;-82
2023/08/06 05:28:12;;;;;;;;;;;;;;;14.34;94.75;100532.50;5942682;23;20927;31
2023/08/06 05:30:41;;;;;;;6.18;3.60;;;;;;;14.29;95.13;100529.13;4925128;29;19922;-82
2023/08/06 05:33:07;;;;;;;5.35;3.88;;;;;;;14.31;94.64;100527.75;4931464;29;20099;-82
2023/08/06 05:35:32;;;;;;;;;;;;;;;14.41;94.90;100532.13;4920350;29;20386;-82
2023/08/06 05:37:58;;;;;;;7.90;3.70;;;;;;;14.38;94.92;100533.53;4935651;29;19923;-80
2023/08/06 05:40:25;;;;;;;;;;;;;;;14.43;95.08;100532.63;4925005;29;20527;-81
2023/08/06 05:42:53;;;;;;;6.95;3.85;;;;;;;14.42;94.78;100529.13;4955554;29;20392;-81
2023/08/06 05:45:18;;;;;;;7.90;4.65;;;;;;;14.39;94.29;100524.34;4939878;29;20050;-81
2023/08/06 05:47:44;;;;;;;4.13;3.00;;;;;;;14.43;94.33;100519.97;4942207;29;20127;-81
2023/08/06 05:50:10;;;;;;;6.28;3.88;;;;;;;14.47;94.32;100530.94;4950554;29;20036;-79
2023/08/06 05:52:36;;;;;;;;;;;;;;;14.51;94.47;100523.06;4932679;29;20063;-81
2023/08/06 05:55:03;;;;;;;4.55;3.30;;;;;;;14.47;94.42;100512.09;4938642;29;20005;-81
2023/08/06 05:57:28;;;;;;;5.25;3.90;;;;;;;14.50;94.77;100510.72;4934130;29;20043;-80
2023/08/06 05:59:54;;;;;;;5.57;3.72;;;;;;;14.51;95.03;100515.00;4974334;28;20046;-81
2023/08/06 06:02:19;;;;;;;4.35;3.28;;;;;;;14.49;94.92;100517.97;4951466;29;20036;-80
2023/08/06 06:04:45;;;;;;;7.28;3.85;;;;;;;14.53;94.72;100520.88;4936995;29;20122;-80
2023/08/06 06:07:11;;;;;;;8.10;4.72;;;;;;;14.54;94.91;100520.56;4946466;29;20055;-81
2023/08/06 06:09:37;;;;;;;6.60;4.13;;;;;;;14.59;95.15;100523.16;4936298;29;20054;-80
2023/08/06 06:12:03;;;;;;;;;;;;;;;14.64;96.05;100528.44;4941968;29;20035;-80
2023/08/06 06:14:29;;;;;;;9.85;3.78;;;;;;;14.62;95.92;100524.44;4923992;29;19919;-79
2023/08/06 06:16:54;;;;;;;;;;;;;;;14.63;95.30;100523.34;4943539;29;20038;-81
2023/08/06 06:19:20;;;;;;;4.35;3.20;;;;;;;14.62;95.22;100521.75;4953410;29;19958;-81
2023/08/06 06:21:46;;;;;;;;;;;;;;;14.69;95.47;100522.94;4937795;29;20012;-80
2023/08/06 06:24:11;;;;;;;6.57;4.47;;;;;;;14.68;95.33;100517.84;4937313;29;19943;-78
2023/08/06 06:26:37;;;;;;;;;;;;;;;14.77;94.95;100524.13;4951584;29;20035;-81
2023/08/06 06:29:02;;;;;;;5.93;4.10;;;;;;;14.77;95.61;100513.34;4948245;29;19938;-79
2023/08/06 06:31:28;;;;;;;8.07;4.93;;;;;;;14.85;95.80;100509.16;4928536;29;20020;-82
2023/08/06 06:33:54;;;;;;;7.13;4.82;;;;;;;14.86;95.44;100516.94;4941662;29;20062;-81
2023/08/06 06:36:20;;;;;;;;;;;;;;;14.92;95.76;100512.22;4930264;29;20027;-81
2023/08/06 06:38:46;;;;;;;7.55;4.45;;;;;;;14.93;95.67;100501.13;4935767;29;19914;-81
2023/08/06 06:41:11;;;;;;;;;;;;;;;15.04;96.11;100512.50;4912137;29;20032;-79
2023/08/06 06:43:39;;;;;;;9.32;4.53;;;;;;;15.05;95.00;100507.88;4904281;29;19926;-78
2023/08/06 06:46:05;;;;;;;6.63;4.40;;;;;;;15.10;93.85;100510.44;4913287;29;20044;-77
2023/08/06 06:48:33;;;;;;;;;;;;;;;15.14;93.52;100508.75;4913642;29;20032;-80
2023/08/06 06:50:59;;;;;;;4.70;3.53;;;;;;;15.16;93.41;100493.84;4899292;29;19923;-78
2023/08/06 06:53:28;;;;;;;5.95;4.53;;;;;;;15.20;93.75;100496.75;4914658;29;20043;-78
2023/08/06 06:56:02;;;;;;;6.30;4.50;;;;;;;15.24;93.53;100501.22;4913399;29;20696;-79
2023/08/06 06:58:28;;;;;;;8.50;4.75;;;;;;;15.30;93.64;100502.66;4922299;29;20038;-77
2023/08/06 07:00:53;;;;;;;;;;;;;;;15.35;93.49;100499.06;4900699;29;20114;-78
2023/08/06 07:03:22;;;;;;;8.02;4.78;;;;;;;15.41;93.91;100508.63;4912592;29;20192;-77
2023/08/06 07:05:50;;;;;;;9.68;5.78;;;;;;;15.45;93.89;100498.81;4895736;29;20784;-76
2023/08/06 07:08:16;;;;;;;6.43;3.90;;;;;;;15.50;93.42;100501.38;4912667;29;20043;-77
2023/08/06 07:10:42;;;;;;;;;;;;;;;15.57;93.26;100503.63;4909489;29;20039;-77
2023/08/06 07:13:08;;;;;;;8.07;4.88;;;;;;;15.60;93.08;100502.25;4893885;29;20047;-78
2023/08/06 07:15:33;;;;;;;;;;;;;;;15.70;94.76;100507.41;4942256;29;20158;-78
2023/08/06 07:17:59;;;;;;;10.02;5.28;;;;;;;15.62;91.75;100502.75;4908118;29;21100;-77
2023/08/06 07:20:25;;;;;;;;;;;;;;;15.65;89.81;100504.84;4912653;29;20047;-78
2023/08/06 07:22:51;;;;;;;9.63;5.82;;;;;;;15.64;89.68;100509.44;4941046;28;20406;-78
2023/08/06 07:25:16;;;;;;;;;;;;;;;15.72;92.04;100506.00;4910472;29;20036;-76
2023/08/06 07:27:43;;;;;;;10.10;5.43;;;;;;;15.75;93.10;100504.56;4908586;29;19915;-78
2023/08/06 07:30:08;;;;;;;11.63;5.78;;;;;;;15.78;93.52;100498.53;4911069;29;20086;-78
2023/08/06 07:32:34;;;;;;;;;;;;;;;15.80;92.59;100501.75;4929262;29;20040;-78
2023/08/06 07:35:00;;;;;;;9.15;5.60;;;;;;;15.80;91.75;100496.34;4913716;29;20300;-78
2023/08/06 07:37:29;;;;;;;;;;;;;;;15.88;91.68;100505.59;4898926;29;20040;-79
2023/08/06 07:39:55;;;;;;;8.65;5.25;;;;;;;15.82;89.78;100513.03;4909632;29;19969;-79
2023/08/06 07:42:22;;;;;;;;;;;;;;;15.88;90.87;100511.00;4917403;29;20067;-76
2023/08/06 07:44:55;;;;;;;9.57;5.28;;;;;;;15.88;91.36;100517.19;4954444;29;20002;-75
2023/08/06 07:47:22;;;;;;;7.53;5.32;;;;;;;15.88;90.27;100513.69;4938138;29;20068;-74
2023/08/06 07:49:48;;;;;;;8.45;4.90;;;;;;;15.93;90.61;100511.66;4922539;29;20027;-74
2023/08/06 07:52:15;;;;;;;6.40;5.20;;;;;;;16.00;91.79;100509.31;4931596;29;20027;-71
2023/08/06 07:54:41;;;;;;;8.80;5.55;;;;;;;16.00;91.29;100512.00;4933607;29;20134;-72
2023/08/06 07:57:10;;;;;;;7.38;4.75;;;;;;;16.00;90.75;100506.63;4913845;29;20224;-72
2023/08/06 07:59:35;;;;;;;;;;;;;;;16.05;90.56;100514.59;4909816;29;20047;-75
2023/08/06 08:02:01;;;;;;;8.27;5.70;;;;;;;16.03;91.34;100505.97;4926813;29;20270;-72
2023/08/06 08:04:27;;;;;;;;;;;;;;;16.07;91.58;100515.06;4898952;29;20048;-73
2023/08/06 08:06:53;;;;;;;9.40;5.47;;;;;;;16.10;91.14;100506.31;4921844;29;19973;-72
2023/08/06 08:09:18;;;;;;;8.68;5.95;;;;;;;16.11;90.73;100502.50;4939592;29;20107;-75
2023/08/06 08:11:44;;;;;;;;;;;;;;;16.19;91.16;100502.84;4949928;29;20043;-76
2023/08/06 08:14:10;;;;;;;7.80;4.70;;;;;;;16.18;90.82;100504.75;4914028;29;20021;-72
2023/08/06 08:16:36;;;;;;;10.98;6.03;;;;;;;16.22;91.60;100500.34;4936714;29;20032;-75
2023/08/06 08:19:03;;;;;;;9.35;5.35;;;;;;;16.25;91.55;100493.50;4941718;29;20039;-73
2023/08/06 08:21:29;;;;;;;9.43;4.82;;;;;;;16.27;90.23;100494.00;4952367;23;20055;-71
2023/08/06 08:23:55;;;;;;;;;;;;;;;16.34;90.12;100488.94;5051044;23;20101;-72
2023/08/06 08:26:20;;;;;;;11.57;5.68;;;;;;;16.36;89.88;100486.69;4950657;28;19930;-76
2023/08/06 08:28:46;;;;;;;;;;;;;;;16.39;89.81;100491.47;4973118;23;20096;-74
2023/08/06 08:31:12;;;;;;;8.45;5.13;;;;;;;16.36;89.65;100478.59;4940992;29;19930;-75
2023/08/06 08:33:38;;;;;;;10.82;5.10;;;;;;;16.36;89.52;100486.69;4933931;28;20054;-73
2023/08/06 08:36:04;;;;;;;7.45;5.25;;;;;;;16.44;91.00;100493.22;4956680;28;20040;-72
2023/08/06 08:38:30;;;;;;;8.27;6.07;;;;;;;16.41;90.89;100486.56;4959866;23;20079;-73
2023/08/06 08:40:58;;;;;;;7.75;5.70;;;;;;;16.39;89.51;100486.06;5008123;23;20041;-73
2023/08/06 08:43:24;;;;;;;10.25;6.03;;;;;;;16.41;88.92;100481.16;4953415;28;20056;-73
2023/08/06 08:45:51;;;;;;;9.18;5.72;;;;;;;16.40;88.17;100487.69;5011444;23;20132;-73
2023/08/06 08:48:21;;;;;;;9.15;5.45;;;;;;;16.41;88.69;100485.78;4996508;23;20044;-73
2023/08/06 08:53:44;;;;;;;11.48;4.97;;;;;;;16.49;89.05;100493.09;5415415;23;19923;-74
2023/08/06 08:56:12;;;;;;;7.95;5.38;;;;;;;16.47;88.30;100482.59;5017578;23;20055;-74
2023/08/06 08:58:38;;;;;;;8.25;6.03;;;;;;;16.51;89.53;100485.47;5292426;23;21010;-75
2023/08/06 09:01:05;;;;;;;6.32;5.63;;;;;;;16.55;90.31;100491.84;4971773;23;20050;-75
2023/08/06 09:03:31;;;;;;;8.48;5.60;;;;;;;16.51;89.40;100491.66;4924941;23;20085;-77
2023/08/06 09:05:59;;;;;;;10.07;6.32;;;;;;;16.49;88.52;100479.56;4903693;29;20039;-76
2023/08/06 09:08:33;;;;;;;8.95;5.85;;;;;;;16.52;89.14;100478.94;4904807;29;20044;-77
2023/08/06 09:11:01;;;;;;;10.55;6.75;;;;;;;16.54;89.90;100477.53;4899188;29;20039;-77
2023/08/06 09:13:27;;;;;;;8.40;6.15;;;;;;;16.54;89.07;100479.44;4888455;29;20052;-79
2023/08/06 09:15:53;;;;;;;10.43;7.28;;;;;;;16.56;89.12;100475.28;4904355;29;20577;-79
2023/08/06 09:18:29;;;;;;;9.23;6.50;;;;;;;16.58;90.47;100481.16;4900723;29;20040;-77
2023/08/06 09:20:54;;;;;;;10.90;7.47;;;;;;;16.60;89.66;100483.59;4887966;29;20040;-78
2023/08/06 09:23:20;;;;;;;11.07;6.97;;;;;;;16.60;88.45;100489.00;4890061;29;20123;-76
2023/08/06 09:25:47;;;;;;;8.18;5.97;;;;;;;16.60;89.10;100492.50;4889217;29;20510;-76
2023/08/06 09:28:12;;;;;;;7.80;6.38;;;;;;;16.65;91.10;100486.91;4906382;29;20577;-76
2023/08/06 09:30:38;;;;;;;7.10;5.68;;;;;;;16.62;88.77;100489.47;4920964;29;20067;-76
2023/08/06 09:33:13;;;;;;;10.63;7.30;;;;;;;16.63;89.08;100485.66;4870513;29;20097;-77
2023/08/06 09:35:39;;;;;;;10.75;6.40;;;;;;;16.68;88.76;100492.81;4898286;29;20088;-77
2023/08/06 09:38:10;;;;;;;8.70;6.32;;;;;;;16.69;88.49;100494.41;4888934;29;20044;-78
2023/08/06 09:40:36;;;;;;;8.63;6.55;;;;;;;16.75;89.32;100487.75;4898449;29;20047;-78
2023/08/06 09:43:02;;;;;;;11.73;6.30;;;;;;;16.77;89.58;100490.94;4876029;29;20079;-77
2023/08/06 09:45:32;;;;;;;8.50;6.15;;;;;;;16.80;89.88;100480.28;4861974;29;20214;-78
2023/08/06 09:48:06;;;;;;;8.65;6.13;;;;;;;16.82;88.34;100493.50;4904295;29;20040;-77
2023/08/06 09:50:33;;;;;;;8.35;5.90;;;;;;;16.83;88.09;100489.66;4867924;29;20477;-78
2023/08/06 09:53:04;;;;;;;11.07;7.50;;;;;;;16.86;89.97;100483.63;4902015;29;20036;-79
2023/08/06 09:55:30;;;;;;;10.25;6.70;;;;;;;16.84;88.91;100481.25;4889853;29;20040;-80
2023/08/06 09:57:56;;;;;;;;;;;;;;;16.83;88.58;100495.09;4888832;29;20069;-79
2023/08/06 10:00:23;;;;;;;9.15;5.82;;;;;;;16.85;89.33;100498.25;4903353;29;20292;-78
2023/08/06 10:02:54;;;;;;;6.75;5.70;;;;;;;16.83;88.53;100489.66;4891169;29;20061;-79
2023/08/06 10:05:20;;;;;;;10.20;5.63;;;;;;;16.79;87.87;100491.41;4906877;29;20032;-80
2023/08/06 10:07:47;;;;;;;7.70;5.28;;;;;;;16.83;88.18;100490.47;4891478;29;20335;-79
2023/08/06 10:10:12;;;;;;;8.25;5.80;;;;;;;16.83;87.89;100485.06;4905322;29;20137;-82
2023/08/06 10:12:44;;;;;;;;;;;;;;;16.82;89.83;100486.19;4905248;29;20186;-79
2023/08/06 10:15:15;;;;;;;8.70;6.00;;;;;;;16.79;88.62;100483.28;4885320;29;19922;-79
2023/08/06 10:17:42;;;;;;;8.07;6.07;;;;;;;16.79;87.78;100486.00;4892224;29;20036;-80
2023/08/06 10:20:08;;;;;;;6.80;6.10;;;;;;;16.85;88.94;100479.31;4903163;29;20115;-81
2023/08/06 10:22:35;;;;;;;7.10;5.65;;;;;;;16.87;89.69;100474.41;4911605;29;20032;-81
2023/08/06 10:25:06;;;;;;;9.43;7.40;;;;;;;16.88;90.20;100476.78;4887270;29;20044;-79
2023/08/06 10:27:39;;;;;;;7.43;6.10;;;;;;;16.86;89.66;100480.91;4888875;29;20040;-78
2023/08/06 10:30:31;;;;;;;8.68;6.57;;;;;;;16.84;88.42;100470.41;4897050;29;20040;-81
2023/08/06 10:33:04;;;;;;;9.23;7.07;;;;;;;16.85;90.51;100482.81;4917914;29;20119;-81
2023/08/06 10:35:50;;;;;;;9.35;6.15;;;;;;;16.86;90.24;100470.09;4887109;29;20079;-80
2023/08/06 10:38:25;;;;;;;9.82;6.43;;;;;;;16.87;90.47;100469.81;4889662;29;20569;-79
2023/08/06 10:40:54;;;;;;;9.77;7.13;;;;;;;16.83;88.55;100468.03;4880023;29;20626;-80
2023/08/06 10:43:34;;;;;;;8.15;5.78;;;;;;;16.89;89.51;100464.06;4906125;29;20036;-80
2023/08/06 10:46:04;;;;;;;10.02;6.72;;;;;;;16.88;88.34;100459.78;4910147;29;20028;-80
2023/08/06 10:48:40;;;;;;;8.80;6.70;;;;;;;16.86;88.08;100467.38;4892593;29;20036;-80
2023/08/06 10:51:10;;;;;;;10.32;6.30;;;;;;;16.85;88.25;100466.59;4907206;29;20038;-82
2023/08/06 10:53:37;;;;;;;8.98;6.40;;;;;;;16.85;88.48;100465.81;4908162;29;20040;-79
2023/08/06 10:56:17;;;;;;;7.40;6.15;;;;;;;16.89;88.34;100455.94;4873722;29;20032;-80
2023/08/06 10:58:44;;;;;;;8.13;6.80;;;;;;;16.90;88.97;100447.50;4907993;29;20410;-80
2023/08/06 11:01:10;;;;;;;9.02;7.25;;;;;;;16.94;89.47;100455.00;4910107;29;20576;-81
2023/08/06 11:03:37;;;;;;;8.35;6.18;;;;;;;16.98;89.62;100448.63;4908574;29;20100;-81
2023/08/06 11:06:03;;;;;;;7.07;5.40;;;;;;;16.98;88.49;100451.31;4893164;29;20032;-81
2023/08/06 11:08:33;;;;;;;7.88;5.43;;;;;;;17.00;88.80;100449.13;4909964;29;20035;-79
2023/08/06 11:11:14;;;;;;;6.80;5.15;;;;;;;16.99;87.57;100439.38;4909728;29;20143;-79
2023/08/06 11:13:46;;;;;;;5.38;4.80;;;;;;;16.98;86.95;100437.78;4891319;29;20490;-79
2023/08/06 11:16:21;;;;;;;7.30;6.00;;;;;;;16.98;87.37;100440.50;4910181;29;20032;-83
2023/08/06 11:18:47;;;;;;;8.05;4.35;;;;;;;16.97;88.03;100435.41;4878287;29;20078;-82
2023/08/06 11:21:13;;;;;;;6.53;5.10;;;;;;;16.98;87.79;100434.28;4901295;29;20029;-82
2023/08/06 11:23:40;;;;;;;6.18;4.45;;;;;;;16.99;87.10;100444.78;4900030;29;20036;-80
2023/08/06 11:26:06;;;;;;;5.68;4.60;;;;;;;16.99;87.10;100439.38;4892899;29;20477;-80
2023/08/06 11:28:32;;;;;;;5.78;4.60;;;;;;;16.96;87.14;100433.84;4906228;29;20052;-81
2023/08/06 11:31:01;;;;;;;4.70;4.07;;;;;;;17.00;87.63;100441.00;4893406;29;20044;-81
2023/08/06 11:33:28;;;;;;;6.50;4.15;;;;;;;16.98;86.94;100434.28;4911735;29;20669;-80
2023/08/06 11:35:56;;;;;;;4.88;4.25;;;;;;;16.96;87.08;100440.03;4916035;29;20044;-81
2023/08/06 11:38:24;;;;;;;5.07;4.22;;;;;;;16.95;86.96;100438.44;4905616;29;20048;-82
2023/08/06 11:40:50;;;;;;;4.90;4.30;;;;;;;16.91;87.50;100437.47;4895197;29;20050;-81